Impacts TAF Board
For situational awareness. Not to be used for flight planning purposes.
IDs:

KPAE - Everett/Paine Fld, WA, US

Issued at 2320 UTC 28 Nov 2020
Updated at 0246 UTC 29 Nov 2020
Potential Impact None Slight Moderate High
Time0237Z 29/03Z 29/04Z 29/05Z 29/06Z 29/07Z 29/08Z 29/09Z 29/10Z 29/11Z 29/12Z 29/13Z 29/14Z 29/15Z>>
Type OBS PRVL PRVL PRVL PRVL PRVL PRVL PRVL PRVL PRVL PRVL PRVL
  [TEMP]  
PRVL
  [TEMP]  
PRVL
  [TEMP]  
VIS 10 >6 >6 >6 >6 >6 >6 >6 >6 >6 >6 4
  [0.5]  
4
  [0.5]  
4
  [0.5]  
CIG -- 250 250 250 250 250 250 250 250 250 250 250
  [3]  
250
  [3]  
250
  [3]  
Cover CLR BKN BKN BKN BKN BKN BKN BKN BKN BKN BKN BKN
  [OVC]  
BKN
  [OVC]  
BKN
  [OVC]  
FltCat VFR VFR VFR VFR VFR VFR VFR VFR VFR VFR VFR MVFR
  [LIFR]  
MVFR
  [LIFR]  
MVFR
  [LIFR]  
WX -- -- -- -- -- -- -- -- -- -- -- BR
  [FG]  
BR
  [FG]  
BR
  [FG]  
WDir 60 VRB VRB VRB VRB VRB VRB VRB VRB VRB VRB 110
[110]
110
[110]
110
[110]
WSpd 3 0 0 0 0 0 0 0 0 0 0 3
  [3]  
3
  [3]  
3
  [3]  
WGst -- -- -- -- -- -- -- -- -- -- -- --
  [--]  
--
  [--]  
--
  [--]  
Raw TAF
KPAE 282320Z 2900/2924 00000KT P6SM SCT050 BKN250
  FM291300 11003KT 4SM BR SCT003 BKN250
  TEMPO 2913/2917 1/2SM FG OVC003
  FM291800 14005KT P6SM BKN250
  FM292100 15007KT P6SM BKN090 BKN250


Raw METAR
KPAE 290237Z 06003KT 10SM CLR 06/05 A3037 RMK AO2 T00560050
KPAE 290230Z 04004KT 2SM BR FEW002 05/04 A3037 RMK AO2 T00500044
KPAE 290153Z 01003KT 10SM CLR 04/03 A3039 RMK AO2 SLP295 T00440033
KPAE 290053Z 00000KT 10SM CLR 06/04 A3039 RMK AO2 SLP293 T00560039
KPAE 282353Z AUTO 00000KT 10SM SCT055 07/04 A3038 RMK AO2 SLP291 60000 T00670044 10083 20067 51002

METAR Board
Radar Display
Forecast Discussion
For situational awareness. Not to be used for flight planning purposes.